Time;durP1;ratioP1;P1;durP2;ratioP2;P2;SDS_P1;SDS_P2;PMS_P1;PMS_P2;Temp;Humidity;BMP_temperature;BMP_pressure;BME280_temperature;BME280_humidity;BME280_pressure;Samples;Min_cycle;Max_cycle;Signal;HPM_P1;HPM_P2
2023/11/03 00:02:23;;;;;;;2.50;2.30;;;;;;;14.14;100.00;96544.05;109837;1250;61360;-75
2023/11/03 00:04:51;;;;;;;6.20;2.70;;;;;;;14.14;100.00;96543.48;109778;1249;64858;-75
2023/11/03 00:07:19;;;;;;;2.30;2.10;;;;;;;14.15;100.00;96544.61;109528;1249;58983;-74
2023/11/03 00:09:45;;;;;;;2.10;1.70;;;;;;;14.15;100.00;96546.39;109803;1250;58977;-75
2023/11/03 00:12:13;;;;;;;3.40;1.90;;;;;;;14.14;100.00;96546.54;109752;1249;65921;-75
2023/11/03 00:14:40;;;;;;;2.40;2.10;;;;;;;14.14;100.00;96539.88;109821;1249;59221;-75
2023/11/03 00:17:06;;;;;;;2.10;1.90;;;;;;;14.16;100.00;96542.36;109795;1249;71688;-75
2023/11/03 00:19:33;;;;;;;2.10;2.00;;;;;;;14.18;100.00;96541.77;109827;1250;58974;-75
2023/11/03 00:21:59;;;;;;;2.70;1.80;;;;;;;14.17;100.00;96531.95;109578;1249;59056;-75
2023/11/03 00:24:26;;;;;;;2.00;1.90;;;;;;;14.18;100.00;96534.19;109788;1249;59364;-75
2023/11/03 00:26:54;;;;;;;2.60;2.10;;;;;;;14.20;100.00;96536.20;109796;1250;59215;-75
2023/11/03 00:29:22;;;;;;;4.00;2.20;;;;;;;14.24;100.00;96524.55;109776;1249;62527;-75
2023/11/03 00:31:49;;;;;;;3.80;2.10;;;;;;;14.27;100.00;96528.51;109789;1250;58996;-75
2023/11/03 00:34:17;;;;;;;3.90;2.80;;;;;;;14.25;100.00;96536.21;109793;1250;59030;-75
2023/11/03 00:36:46;;;;;;;4.70;3.50;;;;;;;14.21;100.00;96530.23;109415;1250;66908;-75
2023/11/03 00:39:18;;;;;;;4.70;3.70;;;;;;;14.12;100.00;96529.08;109640;1250;59006;-74
2023/11/03 00:41:51;;;;;;;5.40;3.80;;;;;;;13.95;100.00;96524.11;109828;1249;62731;-73
2023/11/03 00:44:18;;;;;;;7.20;4.40;;;;;;;13.77;100.00;96528.63;109627;1250;58969;-73
2023/11/03 00:46:46;;;;;;;5.40;4.50;;;;;;;13.59;100.00;96525.57;109883;1250;59007;-72
2023/11/03 00:49:13;;;;;;;6.00;4.30;;;;;;;13.42;100.00;96525.46;109565;1250;66459;-75
2023/11/03 00:51:40;;;;;;;4.60;4.20;;;;;;;13.28;100.00;96528.92;109877;1249;60143;-74
2023/11/03 00:54:07;;;;;;;7.00;4.60;;;;;;;13.16;100.00;96536.98;109838;1249;65082;-74
2023/11/03 00:56:39;;;;;;;6.30;4.40;;;;;;;13.06;100.00;96527.86;109836;1250;59038;-74
2023/11/03 00:59:07;;;;;;;5.00;4.50;;;;;;;12.93;100.00;96517.59;109848;1249;59124;-74
2023/11/03 01:01:34;;;;;;;7.60;4.70;;;;;;;12.84;100.00;96506.73;109799;1250;64503;-74
2023/11/03 01:04:01;;;;;;;5.30;4.40;;;;;;;12.77;100.00;96488.08;109375;1249;61272;-74
2023/11/03 01:06:28;;;;;;;5.50;5.00;;;;;;;12.69;100.00;96482.96;109494;1249;63739;-75
2023/11/03 01:08:54;;;;;;;5.50;4.70;;;;;;;12.61;100.00;96481.45;109824;1250;59030;-74
2023/11/03 01:11:26;;;;;;;5.90;4.90;;;;;;;12.51;100.00;96482.14;109867;1249;61467;-75
2023/11/03 01:13:53;;;;;;;4.60;4.20;;;;;;;12.44;100.00;96488.20;109861;1249;66058;-74
2023/11/03 01:16:22;;;;;;;4.40;4.00;;;;;;;12.39;100.00;96485.02;109825;1250;60146;-74
2023/11/03 01:18:49;;;;;;;5.40;3.90;;;;;;;12.35;100.00;96488.67;109478;1249;73774;-74
2023/11/03 01:21:16;;;;;;;4.90;3.80;;;;;;;12.34;100.00;96491.99;109813;1249;58974;-77
2023/11/03 01:23:43;;;;;;;6.00;4.20;;;;;;;12.37;100.00;96494.31;109602;1249;59331;-75
2023/11/03 01:26:10;;;;;;;4.20;3.80;;;;;;;12.40;100.00;96503.21;109866;1249;65820;-75
2023/11/03 01:28:36;;;;;;;5.80;4.00;;;;;;;12.42;100.00;96505.64;109847;1249;59300;-74
2023/11/03 01:31:04;;;;;;;4.80;3.20;;;;;;;12.44;100.00;96500.28;109823;1249;62506;-74
2023/11/03 01:33:34;;;;;;;3.40;3.10;;;;;;;12.47;100.00;96493.14;109621;1249;58903;-75
2023/11/03 01:36:04;;;;;;;3.00;2.60;;;;;;;12.51;100.00;96488.59;109843;1249;58862;-75
2023/11/03 01:38:31;;;;;;;3.30;2.60;;;;;;;12.59;100.00;96474.48;109848;1250;65901;-75
2023/11/03 01:41:05;;;;;;;2.50;2.30;;;;;;;12.70;100.00;96469.36;109817;1251;59486;-74
2023/11/03 01:43:33;;;;;;;4.40;2.70;;;;;;;12.79;100.00;96466.73;109838;1249;64149;-74
2023/11/03 01:45:59;;;;;;;3.70;3.00;;;;;;;12.88;100.00;96457.43;109835;1251;58966;-75
2023/11/03 01:48:29;;;;;;;3.60;2.70;;;;;;;12.93;100.00;96448.67;109836;1250;59035;-75
2023/11/03 01:50:58;;;;;;;;;;;;;;;12.95;100.00;96449.95;109837;1250;66077;-74
2023/11/03 01:53:27;;;;;;;3.80;2.50;;;;;;;12.97;100.00;96448.16;109872;1249;59871;-73
2023/11/03 01:55:56;;;;;;;3.10;2.80;;;;;;;13.01;100.00;96444.66;109850;1249;72705;-74
2023/11/03 01:58:23;;;;;;;6.80;3.00;;;;;;;13.05;100.00;96445.85;109599;1251;58985;-74
2023/11/03 02:00:50;;;;;;;3.40;2.70;;;;;;;13.07;100.00;96440.95;109904;1250;59779;-74
2023/11/03 02:03:17;;;;;;;3.20;2.50;;;;;;;13.07;100.00;96435.38;109874;1250;66435;-75
2023/11/03 02:05:43;;;;;;;2.80;2.60;;;;;;;13.11;100.00;96436.08;109817;1250;59017;-74
2023/11/03 02:08:10;;;;;;;3.70;2.60;;;;;;;13.13;100.00;96422.63;109860;1249;59003;-75
2023/11/03 02:10:42;;;;;;;3.90;2.30;;;;;;;13.15;100.00;96411.67;109882;1249;58918;-73
2023/11/03 02:13:10;;;;;;;3.30;3.10;;;;;;;13.20;100.00;96408.08;109842;1250;59366;-77
2023/11/03 02:15:39;;;;;;;2.50;2.30;;;;;;;13.25;100.00;96403.72;109873;1250;66028;-75
2023/11/03 02:18:08;;;;;;;3.50;3.20;;;;;;;13.32;100.00;96390.79;109598;1250;60265;-74
2023/11/03 02:20:35;;;;;;;3.00;2.70;;;;;;;13.37;100.00;96382.77;109530;1250;63786;-75
2023/11/03 02:23:03;;;;;;;2.30;1.90;;;;;;;13.44;100.00;96373.80;109565;1249;59035;-74
2023/11/03 02:25:30;;;;;;;3.10;1.90;;;;;;;13.55;100.00;96373.91;109546;1251;59018;-74
2023/11/03 02:27:57;;;;;;;1.70;1.60;;;;;;;13.68;100.00;96386.64;109838;1250;64737;-75
2023/11/03 02:30:23;;;;;;;3.30;1.70;;;;;;;13.75;100.00;96395.39;109840;1249;58958;-75
2023/11/03 02:32:49;;;;;;;3.00;2.40;;;;;;;13.78;100.00;96392.66;109840;1249;59106;-74
2023/11/03 02:35:16;;;;;;;3.70;2.50;;;;;;;13.79;100.00;96393.26;109846;1249;58968;-74
2023/11/03 02:37:42;;;;;;;3.80;2.40;;;;;;;13.76;100.00;96405.77;109876;1249;59016;-74
2023/11/03 02:40:09;;;;;;;2.40;2.20;;;;;;;13.72;100.00;96416.46;109901;1250;59242;-73
2023/11/03 02:42:36;;;;;;;3.60;2.60;;;;;;;13.66;100.00;96407.51;109454;1251;59438;-74
2023/11/03 02:45:03;;;;;;;2.80;2.40;;;;;;;13.61;100.00;96405.62;109851;1249;64076;-74
2023/11/03 02:47:30;;;;;;;2.90;2.30;;;;;;;13.57;100.00;96402.48;109430;1250;59409;-73
2023/11/03 02:49:56;;;;;;;2.90;2.50;;;;;;;13.53;100.00;96396.44;109624;1249;59189;-74
2023/11/03 02:52:23;;;;;;;3.30;2.90;;;;;;;13.49;100.00;96388.36;109872;1249;59009;-74
2023/11/03 02:54:49;;;;;;;3.20;2.70;;;;;;;13.47;100.00;96372.24;109513;1250;59153;-74
2023/11/03 02:57:16;;;;;;;3.20;2.90;;;;;;;13.46;100.00;96367.55;109854;1251;59064;-75
2023/11/03 02:59:44;;;;;;;4.20;3.00;;;;;;;13.45;100.00;96368.31;109865;1249;59153;-73
2023/11/03 03:02:10;;;;;;;2.70;2.40;;;;;;;13.46;100.00;96375.24;109859;1249;59222;-73
2023/11/03 03:04:37;;;;;;;3.40;2.50;;;;;;;13.45;100.00;96372.50;109884;1250;66112;-75
2023/11/03 03:07:04;;;;;;;5.30;2.80;;;;;;;13.42;100.00;96366.20;109858;1249;58924;-75
2023/11/03 03:09:30;;;;;;;4.60;3.10;;;;;;;13.38;100.00;96359.77;109851;1250;60041;-74
2023/11/03 03:11:57;;;;;;;5.30;3.40;;;;;;;13.31;100.00;96359.48;109894;1251;58962;-75
2023/11/03 03:14:24;;;;;;;4.00;3.40;;;;;;;13.22;100.00;96356.81;109876;1250;58924;-74
2023/11/03 03:16:51;;;;;;;3.90;3.20;;;;;;;13.13;100.00;96355.91;109859;1249;66251;-73
2023/11/03 03:19:17;;;;;;;4.40;3.60;;;;;;;13.05;100.00;96352.21;109856;1250;59109;-75
2023/11/03 03:21:44;;;;;;;6.50;3.80;;;;;;;12.98;100.00;96350.63;109834;1249;59134;-73
2023/11/03 03:24:10;;;;;;;4.10;3.70;;;;;;;12.90;100.00;96345.61;109805;1250;58937;-74
2023/11/03 03:26:37;;;;;;;5.70;4.30;;;;;;;12.83;100.00;96348.41;109917;1249;59040;-73
2023/11/03 03:29:03;;;;;;;5.70;4.70;;;;;;;12.77;100.00;96353.63;109847;1250;59024;-73
2023/11/03 03:31:30;;;;;;;4.70;4.00;;;;;;;12.71;100.00;96347.86;109867;1250;59216;-72
2023/11/03 03:33:56;;;;;;;4.30;3.90;;;;;;;12.66;100.00;96336.48;109856;1250;59072;-73
2023/11/03 03:36:23;;;;;;;5.80;4.30;;;;;;;12.63;100.00;96328.53;109827;1250;58984;-73
2023/11/03 03:38:49;;;;;;;7.70;4.60;;;;;;;12.63;100.00;96318.38;109881;1250;59219;-73
2023/11/03 03:41:16;;;;;;;4.10;3.70;;;;;;;12.63;100.00;96319.04;109555;1253;59097;-74
2023/11/03 03:43:42;;;;;;;4.20;3.50;;;;;;;12.65;100.00;96312.91;109849;1249;59096;-73
2023/11/03 03:46:08;;;;;;;5.30;3.70;;;;;;;12.72;100.00;96306.20;109890;1249;59528;-73
2023/11/03 03:48:35;;;;;;;4.50;3.90;;;;;;;12.78;100.00;96302.94;109878;1250;58967;-73
2023/11/03 03:51:01;;;;;;;5.20;3.70;;;;;;;12.79;100.00;96296.15;109860;1249;59095;-73
2023/11/03 03:53:29;;;;;;;5.50;3.10;;;;;;;12.81;100.00;96290.23;109894;1249;59078;-73
2023/11/03 03:55:55;;;;;;;3.00;2.70;;;;;;;12.83;100.00;96287.11;109849;1250;60137;-73
2023/11/03 03:58:22;;;;;;;5.50;3.00;;;;;;;12.86;100.00;96290.52;109859;1250;59641;-73
2023/11/03 04:00:49;;;;;;;4.80;2.70;;;;;;;12.89;100.00;96291.76;109906;1250;59219;-73
2023/11/03 04:03:15;;;;;;;3.50;3.20;;;;;;;12.91;100.00;96280.42;109889;1250;60268;-73
2023/11/03 04:05:42;;;;;;;2.70;2.50;;;;;;;12.93;100.00;96265.05;109424;1251;65741;-73
2023/11/03 04:08:08;;;;;;;2.80;2.60;;;;;;;12.96;100.00;96268.10;109696;1249;59080;-73
2023/11/03 04:10:35;;;;;;;3.70;3.00;;;;;;;13.01;100.00;96263.79;109692;1250;59104;-73
2023/11/03 04:13:01;;;;;;;4.90;3.50;;;;;;;13.02;100.00;96260.15;109206;1250;59066;-73
2023/11/03 04:15:28;;;;;;;3.70;3.40;;;;;;;12.99;100.00;96254.92;109689;1253;59156;-73
2023/11/03 04:17:54;;;;;;;3.90;3.50;;;;;;;12.94;100.00;96246.27;109687;1249;58982;-74
2023/11/03 04:20:21;;;;;;;3.30;3.00;;;;;;;12.89;100.00;96251.49;109687;1250;59814;-74
2023/11/03 04:22:47;;;;;;;4.60;3.50;;;;;;;12.84;100.00;96262.74;109752;1249;62873;-73
2023/11/03 04:25:14;;;;;;;3.60;2.90;;;;;;;12.81;100.00;96263.36;109716;1251;59025;-73
2023/11/03 04:27:40;;;;;;;3.70;2.50;;;;;;;12.79;100.00;96253.83;109696;1249;58867;-73
2023/11/03 04:30:07;;;;;;;2.60;2.40;;;;;;;12.83;100.00;96251.20;109676;1250;65724;-72
2023/11/03 04:32:34;;;;;;;2.80;2.20;;;;;;;12.87;100.00;96247.48;109738;1250;60170;-74
2023/11/03 04:35:00;;;;;;;3.40;2.40;;;;;;;12.88;100.00;96252.14;109603;1250;59062;-73
2023/11/03 04:37:27;;;;;;;2.40;2.20;;;;;;;12.89;100.00;96257.38;109675;1249;58913;-74
2023/11/03 04:39:53;;;;;;;3.80;3.50;;;;;;;12.89;100.00;96251.29;109679;1250;59116;-74
2023/11/03 04:42:20;;;;;;;3.00;2.80;;;;;;;12.88;100.00;96255.06;109741;1250;59283;-74
2023/11/03 04:44:46;;;;;;;3.90;3.40;;;;;;;12.88;100.00;96258.85;109694;1250;58884;-73
2023/11/03 04:47:13;;;;;;;4.40;4.10;;;;;;;12.90;100.00;96244.44;109662;1249;59236;-73
2023/11/03 04:49:39;;;;;;;5.90;4.60;;;;;;;12.89;100.00;96235.75;109726;1250;58982;-73
2023/11/03 04:52:06;;;;;;;5.10;4.60;;;;;;;12.91;100.00;96236.14;109717;1250;59086;-73
2023/11/03 04:54:32;;;;;;;3.80;3.50;;;;;;;12.91;100.00;96227.19;109658;1250;59061;-74
2023/11/03 04:56:59;;;;;;;4.30;3.70;;;;;;;12.92;100.00;96222.95;109739;1251;59032;-73
2023/11/03 04:59:25;;;;;;;2.70;2.50;;;;;;;12.93;100.00;96218.34;109705;1250;58996;-74
2023/11/03 05:01:54;;;;;;;2.70;2.50;;;;;;;12.96;100.00;96200.43;109671;1251;59233;-74
2023/11/03 05:04:22;;;;;;;2.20;2.00;;;;;;;13.04;100.00;96185.89;109677;1250;61314;-74
2023/11/03 05:06:48;;;;;;;2.50;2.30;;;;;;;13.11;100.00;96181.24;109705;1251;67061;-75
2023/11/03 05:09:17;;;;;;;3.30;2.30;;;;;;;13.16;100.00;96187.48;109719;1250;60133;-74
2023/11/03 05:11:44;;;;;;;2.90;2.50;;;;;;;13.16;100.00;96184.41;109383;1250;62588;-74
2023/11/03 05:14:11;;;;;;;4.10;2.70;;;;;;;13.16;100.00;96177.77;109698;1250;59010;-74
2023/11/03 05:16:38;;;;;;;3.00;2.60;;;;;;;13.18;100.00;96178.94;109679;1250;59102;-74
2023/11/03 05:19:04;;;;;;;3.00;2.70;;;;;;;13.19;100.00;96174.71;109691;1250;59265;-74
2023/11/03 05:21:31;;;;;;;4.10;2.70;;;;;;;13.21;100.00;96179.34;109679;1251;58950;-74
2023/11/03 05:23:58;;;;;;;2.60;2.40;;;;;;;13.18;100.00;96182.15;109698;1250;64022;-75
2023/11/03 05:26:24;;;;;;;4.90;2.60;;;;;;;13.14;100.00;96183.91;109704;1249;59251;-75
2023/11/03 05:28:51;;;;;;;3.50;3.10;;;;;;;13.11;100.00;96175.60;109343;1250;58950;-75
2023/11/03 05:31:18;;;;;;;7.00;3.60;;;;;;;13.08;100.00;96170.39;109665;1249;64734;-75
2023/11/03 05:33:44;;;;;;;3.20;2.90;;;;;;;13.08;100.00;96176.27;109672;1251;69889;-75
2023/11/03 05:36:11;;;;;;;3.70;3.30;;;;;;;13.08;100.00;96181.58;109650;1250;58996;-75
2023/11/03 05:38:38;;;;;;;5.20;3.90;;;;;;;13.07;100.00;96180.45;109697;1250;59072;-75
2023/11/03 05:41:05;;;;;;;4.10;3.00;;;;;;;13.06;100.00;96196.27;109694;1251;59008;-75
2023/11/03 05:43:31;;;;;;;3.40;2.40;;;;;;;13.05;100.00;96209.42;109701;1250;66520;-74
2023/11/03 05:45:58;;;;;;;3.80;2.40;;;;;;;13.04;100.00;96219.38;109646;1253;58993;-74
2023/11/03 05:48:24;;;;;;;3.60;2.90;;;;;;;13.04;100.00;96231.30;109697;1249;59023;-74
2023/11/03 05:50:51;;;;;;;3.90;2.40;;;;;;;13.05;100.00;96223.41;109664;1251;59044;-74
2023/11/03 05:53:17;;;;;;;3.20;2.90;;;;;;;13.05;100.00;96208.23;109539;1249;59034;-74
2023/11/03 05:55:44;;;;;;;3.50;2.30;;;;;;;13.07;100.00;96196.16;109515;1249;59342;-75
2023/11/03 05:58:10;;;;;;;2.40;2.20;;;;;;;13.13;100.00;96195.99;109426;1251;59095;-75
2023/11/03 06:00:37;;;;;;;2.10;1.90;;;;;;;13.23;100.00;96195.63;109636;1250;59049;-75
2023/11/03 06:03:03;;;;;;;4.50;2.00;;;;;;;13.32;100.00;96194.93;109667;1249;58988;-75
2023/11/03 06:05:33;;;;;;;2.30;2.10;;;;;;;13.38;100.00;96188.82;109738;1250;58889;-75
2023/11/03 06:08:01;;;;;;;5.00;2.50;;;;;;;13.42;100.00;96188.54;109720;1251;64811;-75
2023/11/03 06:10:27;;;;;;;4.10;2.40;;;;;;;13.46;100.00;96194.74;109521;1251;59242;-75
2023/11/03 06:12:54;;;;;;;3.40;2.00;;;;;;;13.51;100.00;96202.71;109520;1250;62491;-74
2023/11/03 06:15:20;;;;;;;2.40;1.90;;;;;;;13.61;100.00;96207.83;109659;1250;59001;-74
2023/11/03 06:17:47;;;;;;;3.10;2.20;;;;;;;13.73;100.00;96216.23;109737;1251;58996;-74
2023/11/03 06:20:14;;;;;;;4.70;3.40;;;;;;;13.83;100.00;96223.63;109722;1251;59031;-74
2023/11/03 06:22:41;;;;;;;5.50;3.60;;;;;;;13.94;100.00;96218.77;109725;1251;59996;-74
2023/11/03 06:25:08;;;;;;;5.50;3.60;;;;;;;14.06;100.00;96209.30;109725;1250;58973;-74
2023/11/03 06:27:34;;;;;;;3.10;2.80;;;;;;;14.15;100.00;96204.66;109693;1250;59017;-74
2023/11/03 06:30:01;;;;;;;3.50;3.20;;;;;;;14.19;100.00;96195.05;109678;1251;59086;-74
2023/11/03 06:32:28;;;;;;;3.40;3.00;;;;;;;14.11;100.00;96192.67;109684;1251;64800;-75
2023/11/03 06:34:54;;;;;;;3.20;2.60;;;;;;;13.98;100.00;96213.91;109729;1249;59844;-74
2023/11/03 06:37:20;;;;;;;4.00;2.50;;;;;;;13.90;100.00;96217.27;109682;1250;59176;-73
2023/11/03 06:39:50;;;;;;;3.60;2.80;;;;;;;13.84;100.00;96214.08;109663;1250;59012;-74
2023/11/03 06:42:18;;;;;;;9.70;2.80;;;;;;;13.79;100.00;96210.20;109712;1250;59041;-73
2023/11/03 06:44:45;;;;;;;4.20;2.70;;;;;;;13.76;100.00;96205.16;109719;1249;64832;-74
2023/11/03 06:47:11;;;;;;;3.40;2.90;;;;;;;13.75;100.00;96202.00;109726;1250;60393;-73
2023/11/03 06:49:38;;;;;;;5.00;3.20;;;;;;;13.73;100.00;96197.87;109661;1250;59155;-77
2023/11/03 06:52:05;;;;;;;5.40;3.20;;;;;;;13.71;100.00;96187.60;109644;1250;59017;-80
2023/11/03 06:54:32;;;;;;;4.80;3.30;;;;;;;13.70;100.00;96179.85;109699;1250;59092;-71
2023/11/03 06:56:58;;;;;;;4.60;3.10;;;;;;;13.72;100.00;96177.23;109652;1249;59253;-73
2023/11/03 06:59:24;;;;;;;4.10;3.30;;;;;;;13.73;100.00;96175.23;109401;1251;59210;-72
2023/11/03 07:01:51;;;;;;;6.00;3.80;;;;;;;13.75;100.00;96176.27;109707;1250;59043;-75
2023/11/03 07:04:18;;;;;;;6.80;3.90;;;;;;;13.77;100.00;96166.70;109638;1250;59048;-73
2023/11/03 07:06:44;;;;;;;6.50;4.00;;;;;;;13.80;100.00;96172.11;109429;1250;59371;-75
2023/11/03 07:09:11;;;;;;;5.40;4.20;;;;;;;13.82;100.00;96176.26;109830;1251;58943;-72
2023/11/03 07:11:37;;;;;;;3.60;3.30;;;;;;;13.86;100.00;96172.61;109862;1251;60134;-73
2023/11/03 07:14:05;;;;;;;4.90;3.70;;;;;;;13.88;100.00;96167.52;109778;1249;59124;-73
2023/11/03 07:16:33;;;;;;;5.50;3.80;;;;;;;13.90;100.00;96161.17;109866;1249;58944;-76
2023/11/03 07:19:00;;;;;;;4.80;3.60;;;;;;;13.91;100.00;96165.99;109866;1250;59065;-75
2023/11/03 07:21:26;;;;;;;4.30;3.90;;;;;;;13.92;100.00;96166.77;109817;1250;67135;-74
2023/11/03 07:23:53;;;;;;;6.70;4.10;;;;;;;13.94;100.00;96174.00;109824;1251;59912;-73
2023/11/03 07:26:19;;;;;;;5.80;4.10;;;;;;;13.95;100.00;96162.07;109561;1252;59066;-73
2023/11/03 07:28:46;;;;;;;4.70;4.20;;;;;;;13.97;100.00;96167.59;109885;1251;59000;-72
2023/11/03 07:31:12;;;;;;;4.90;4.00;;;;;;;13.99;100.00;96166.05;109845;1251;59294;-72
2023/11/03 07:33:41;;;;;;;6.30;4.20;;;;;;;13.99;100.00;96171.74;109847;1250;67300;-72
2023/11/03 07:36:10;;;;;;;4.60;3.40;;;;;;;13.99;100.00;96175.90;109617;1249;59949;-73
2023/11/03 07:38:37;;;;;;;6.50;3.70;;;;;;;13.98;100.00;96172.88;109822;1250;64057;-72
2023/11/03 07:41:05;;;;;;;5.40;3.60;;;;;;;13.96;100.00;96169.46;109529;1250;59024;-72
2023/11/03 07:43:31;;;;;;;6.00;3.40;;;;;;;13.98;100.00;96166.08;109606;1250;59101;-72
2023/11/03 07:45:58;;;;;;;4.30;3.40;;;;;;;13.99;100.00;96155.84;109842;1250;58902;-72
2023/11/03 07:48:24;;;;;;;6.10;3.70;;;;;;;14.02;100.00;96149.56;109862;1250;59171;-72
2023/11/03 07:50:51;;;;;;;6.40;3.90;;;;;;;14.05;100.00;96151.53;109824;1249;59413;-71
2023/11/03 07:53:18;;;;;;;8.60;5.00;;;;;;;14.07;100.00;96142.98;109812;1251;58959;-72
2023/11/03 07:55:44;;;;;;;18.20;9.60;;;;;;;14.09;100.00;96142.41;109555;1249;59657;-72
2023/11/03 07:58:11;;;;;;;14.00;8.80;;;;;;;14.09;100.00;96138.80;109541;1250;59068;-72
2023/11/03 08:00:37;;;;;;;13.80;8.80;;;;;;;14.08;100.00;96125.52;109910;1250;58966;-72
2023/11/03 08:03:07;;;;;;;12.70;8.50;;;;;;;14.09;100.00;96128.48;109824;1251;59038;-73
2023/11/03 08:05:34;;;;;;;9.80;6.20;;;;;;;14.12;100.00;96145.43;109550;1251;59016;-72
2023/11/03 08:08:02;;;;;;;8.30;4.30;;;;;;;14.17;100.00;96149.79;109825;1248;59167;-70
2023/11/03 08:10:29;;;;;;;3.60;3.20;;;;;;;14.21;100.00;96151.67;109851;1251;64862;-77
2023/11/03 08:12:55;;;;;;;7.60;4.70;;;;;;;14.23;100.00;96140.73;109607;1250;60292;-77
2023/11/03 08:15:22;;;;;;;10.40;7.30;;;;;;;14.25;100.00;96129.79;109845;1249;63768;-75
2023/11/03 08:17:48;;;;;;;6.50;5.30;;;;;;;14.28;100.00;96127.77;109808;1251;59242;-79
2023/11/03 08:20:15;;;;;;;7.30;5.40;;;;;;;14.32;100.00;96131.93;109608;1250;59026;-77
2023/11/03 08:22:42;;;;;;;6.40;4.70;;;;;;;14.35;100.00;96131.13;109851;1250;65741;-78
2023/11/03 08:25:09;;;;;;;5.60;3.80;;;;;;;14.39;100.00;96136.22;109640;1251;60230;-77
2023/11/03 08:27:36;;;;;;;4.70;3.90;;;;;;;14.43;100.00;96127.63;109582;1251;59138;-78
2023/11/03 08:30:06;;;;;;;4.70;4.20;;;;;;;14.47;100.00;96132.96;109512;1250;59315;-76
2023/11/03 08:32:32;;;;;;;3.70;2.90;;;;;;;14.53;100.00;96138.42;109581;1250;59183;-71
2023/11/03 08:34:58;;;;;;;4.50;3.80;;;;;;;14.58;100.00;96129.72;109823;1251;58947;-71
2023/11/03 08:37:25;;;;;;;7.50;3.80;;;;;;;14.65;100.00;96115.08;109827;1252;58952;-74
2023/11/03 08:39:52;;;;;;;7.20;3.80;;;;;;;14.73;100.00;96105.63;109825;1249;59102;-71
2023/11/03 08:42:19;;;;;;;5.80;3.20;;;;;;;14.78;100.00;96114.35;109814;1249;58992;-70
2023/11/03 08:44:45;;;;;;;3.40;2.80;;;;;;;14.81;100.00;96114.53;109811;1251;59018;-69
2023/11/03 08:47:12;;;;;;;5.70;3.60;;;;;;;14.82;100.00;96108.30;109541;1251;59006;-69
2023/11/03 08:49:38;;;;;;;5.50;4.40;;;;;;;14.84;100.00;96105.96;109831;1251;59062;-69
2023/11/03 08:52:04;;;;;;;4.90;3.60;;;;;;;14.86;100.00;96099.28;109807;1251;64976;-69
2023/11/03 08:54:33;;;;;;;5.80;4.60;;;;;;;14.84;100.00;96089.26;109780;1251;59005;-69
2023/11/03 08:56:59;;;;;;;9.50;5.80;;;;;;;14.83;100.00;96083.43;109552;1249;59001;-69
2023/11/03 08:59:28;;;;;;;8.80;4.30;;;;;;;14.83;100.00;96084.80;109802;1251;66092;-69
2023/11/03 09:01:55;;;;;;;12.70;6.70;;;;;;;14.83;100.00;96080.26;109811;1251;60001;-69
2023/11/03 09:04:22;;;;;;;8.60;4.80;;;;;;;14.85;100.00;96071.15;109783;1251;63726;-70
2023/11/03 09:06:49;;;;;;;4.80;3.10;;;;;;;14.87;100.00;96064.06;109791;1251;58942;-69
2023/11/03 09:09:16;;;;;;;4.10;3.30;;;;;;;14.86;100.00;96059.47;109322;1251;91062;-69
2023/11/03 09:11:43;;;;;;;7.30;4.40;;;;;;;14.84;100.00;96057.60;109587;1251;65863;-68
2023/11/03 09:14:09;;;;;;;7.30;4.80;;;;;;;14.81;100.00;96057.68;109842;1250;59859;-69
2023/11/03 09:16:36;;;;;;;8.00;5.60;;;;;;;14.77;100.00;96054.79;109801;1249;63788;-71
2023/11/03 09:19:03;;;;;;;4.90;4.40;;;;;;;14.72;100.00;96048.55;109521;1251;59132;-69
2023/11/03 09:21:30;;;;;;;8.30;5.00;;;;;;;14.65;100.00;96049.27;109456;1253;59105;-70
2023/11/03 09:23:58;;;;;;;4.90;4.50;;;;;;;14.59;100.00;96045.45;109465;1254;66256;-70
2023/11/03 09:26:25;;;;;;;3.60;3.30;;;;;;;14.53;100.00;96033.86;109355;1253;61352;-74
2023/11/03 09:28:52;;;;;;;6.60;6.00;;;;;;;14.46;100.00;96025.90;109454;1254;62578;-74
2023/11/03 09:31:19;;;;;;;10.00;8.40;;;;;;;14.40;100.00;96027.24;109450;1254;59023;-74
2023/11/03 09:33:47;;;;;;;6.10;4.60;;;;;;;14.36;100.00;96019.23;109353;1253;59424;-78
2023/11/03 09:36:15;;;;;;;7.60;4.70;;;;;;;14.30;100.00;96020.02;109490;1252;66016;-79
2023/11/03 09:38:42;;;;;;;5.00;4.50;;;;;;;14.25;100.00;96029.65;109504;1254;60154;-80
2023/11/03 09:41:10;;;;;;;6.90;5.50;;;;;;;14.19;100.00;96018.73;109467;1253;72618;-78
2023/11/03 09:43:36;;;;;;;5.80;5.20;;;;;;;14.17;100.00;96013.73;109485;1254;58982;-76
2023/11/03 09:46:03;;;;;;;6.30;4.40;;;;;;;14.15;100.00;96018.05;109454;1254;59051;-75
2023/11/03 09:48:32;;;;;;;8.10;5.70;;;;;;;14.13;100.00;96005.27;109436;1254;66053;-78
2023/11/03 09:50:59;;;;;;;9.90;5.80;;;;;;;14.13;100.00;96003.16;109452;1254;60182;-77
2023/11/03 09:53:26;;;;;;;9.60;6.50;;;;;;;14.13;100.00;95996.58;109751;1253;64139;-78
2023/11/03 09:55:55;;;;;;;8.20;5.70;;;;;;;14.14;100.00;95998.64;109823;1249;59370;-78
2023/11/03 09:58:22;;;;;;;7.30;5.50;;;;;;;14.16;100.00;95987.31;109856;1251;58778;-83
2023/11/03 10:00:49;;;;;;;6.30;5.00;;;;;;;14.18;100.00;95981.48;109595;1251;65752;-85
2023/11/03 10:03:17;;;;;;;6.10;5.20;;;;;;;14.21;100.00;95970.83;109859;1250;67938;-78
2023/11/03 10:05:44;;;;;;;6.00;4.70;;;;;;;14.25;100.00;95970.88;109572;1251;62740;-77
2023/11/03 10:08:12;;;;;;;6.90;5.40;;;;;;;14.28;100.00;95966.31;109852;1250;58942;-78
2023/11/03 10:10:39;;;;;;;8.20;6.60;;;;;;;14.31;100.00;95958.29;109805;1249;58987;-80
2023/11/03 10:13:10;;;;;;;8.70;7.10;;;;;;;14.33;100.00;95951.95;109592;1250;64520;-80
2023/11/03 10:15:38;;;;;;;8.20;6.40;;;;;;;14.34;100.00;95955.16;109840;1251;60149;-80
2023/11/03 10:18:05;;;;;;;6.10;4.20;;;;;;;14.35;100.00;95963.63;109592;1249;63733;-78
2023/11/03 10:20:32;;;;;;;5.40;3.20;;;;;;;14.36;100.00;95964.73;109814;1251;58985;-78
2023/11/03 10:22:59;;;;;;;7.90;3.70;;;;;;;14.37;100.00;95961.20;109850;1250;59136;-76
2023/11/03 10:25:26;;;;;;;7.90;4.20;;;;;;;14.38;100.00;95957.03;109829;1250;66953;-77
2023/11/03 10:27:54;;;;;;;9.30;5.20;;;;;;;14.36;100.00;95952.28;109780;1251;59040;-77
2023/11/03 10:30:22;;;;;;;8.50;5.30;;;;;;;14.33;100.00;95949.05;109829;1251;65203;-80
2023/11/03 10:32:48;;;;;;;8.10;5.30;;;;;;;14.29;100.00;95941.55;109612;1251;59060;-82
2023/11/03 10:35:15;;;;;;;10.90;5.60;;;;;;;14.24;100.00;95936.84;109628;1249;59005;-81
2023/11/03 10:37:41;;;;;;;7.90;4.70;;;;;;;14.21;100.00;95936.95;109831;1249;64845;-77
2023/11/03 10:40:13;;;;;;;10.30;4.70;;;;;;;14.18;100.00;95935.78;109846;1251;60131;-78
2023/11/03 10:42:43;;;;;;;10.50;7.40;;;;;;;14.17;100.00;95936.12;109834;1251;65291;-80
2023/11/03 10:45:13;;;;;;;11.10;6.90;;;;;;;14.18;100.00;95938.21;109779;1250;59067;-71
2023/11/03 10:47:51;;;;;;;11.70;7.70;;;;;;;14.20;100.00;95936.04;109746;1250;59088;-75
2023/11/03 10:50:20;;;;;;;13.80;8.20;;;;;;;14.24;100.00;95931.85;109577;1251;66011;-77
2023/11/03 10:52:58;;;;;;;9.90;6.40;;;;;;;14.26;100.00;95925.71;109160;1251;59445;-73
2023/11/03 10:55:30;;;;;;;10.50;8.20;;;;;;;14.28;100.00;95925.64;109675;1249;62883;-79
2023/11/03 10:57:58;;;;;;;7.10;6.40;;;;;;;14.28;100.00;95924.73;109601;1250;59006;-76
2023/11/03 11:00:26;;;;;;;9.50;7.80;;;;;;;14.27;100.00;95929.52;109542;1251;59093;-76
2023/11/03 11:03:23;;;;;;;6.10;5.40;;;;;;;14.24;100.00;95933.62;109539;1251;67272;-75
2023/11/03 11:05:59;;;;;;;7.00;5.30;;;;;;;14.22;100.00;95934.80;109678;1250;60310;-77
2023/11/03 11:08:29;;;;;;;6.60;5.80;;;;;;;14.22;100.00;95932.14;109648;1251;64176;-77
2023/11/03 11:10:58;;;;;;;9.40;5.80;;;;;;;14.23;100.00;95928.91;109684;1253;58958;-74
2023/11/03 11:13:25;;;;;;;9.80;6.70;;;;;;;14.25;100.00;95925.30;109546;1251;59023;-76
2023/11/03 11:15:58;;;;;;;8.60;6.40;;;;;;;14.25;100.00;95917.73;109691;1250;66127;-77
2023/11/03 11:18:28;;;;;;;7.90;5.10;;;;;;;14.26;100.00;95918.38;109714;1250;60544;-74